1NY3 weather

Richland Airpark
Richland, New York, United States

Public forecast

Using degrees Fahrenheit for public forecast. Weather courtesy of forecast.io.

Closest aviation weather report (METAR) to Richland Airpark

Closest report is Oswego County Airport, 20.2 nm (37.4 km) SW. Retrieved 2019/10/23 23:54 UTC (1 hour ago):

KFZY 232354Z AUTO 22004KT 10SM CLR 09/00 A3006 RMK AO2 SLP182 T00940000 10156 20094 51029

Closest aviation forecast (TAF) to Richland Airpark

Closest forecast is Watertown International Airport, 25.5 nm (47.3 km) N. Retrieved 2019-10-24 00:28 UTC (27 minutes ago):

TAF KART 232326Z 2400/2424 25009KT P6SM OVC070 FM240500 20011KT P6SM FEW250 FM241000 20011KT P6SM BKN120 WS020/25035KT FM241400 21013G19KT P6SM OVC050 FM242300 24008KT P6SM BKN050